sensor_id;sensor_type;location;lat;lon;timestamp;pressure;altitude;pressure_sealevel;temperature;humidity
44751;BME280;30477;48.224;11.470;2023-01-25T00:00:38;97515.78;;;0.47;86.48
44751;BME280;30477;48.224;11.470;2023-01-25T00:03:03;97508.88;;;0.50;86.46
44751;BME280;30477;48.224;11.470;2023-01-25T00:05:29;97508.84;;;0.52;86.29
44751;BME280;30477;48.224;11.470;2023-01-25T00:07:54;97504.59;;;0.52;86.46
44751;BME280;30477;48.224;11.470;2023-01-25T00:10:20;97510.56;;;0.51;86.26
44751;BME280;30477;48.224;11.470;2023-01-25T00:12:45;97496.94;;;0.52;86.43
44751;BME280;30477;48.224;11.470;2023-01-25T00:15:10;97499.63;;;0.48;86.36
44751;BME280;30477;48.224;11.470;2023-01-25T00:17:36;97504.81;;;0.45;86.55
44751;BME280;30477;48.224;11.470;2023-01-25T00:20:01;97510.06;;;0.38;86.35
44751;BME280;30477;48.224;11.470;2023-01-25T00:22:27;97509.28;;;0.36;86.34
44751;BME280;30477;48.224;11.470;2023-01-25T00:24:52;97514.38;;;0.36;86.32
44751;BME280;30477;48.224;11.470;2023-01-25T00:27:18;97512.78;;;0.32;86.29
44751;BME280;30477;48.224;11.470;2023-01-25T00:29:43;97504.34;;;0.30;86.42
44751;BME280;30477;48.224;11.470;2023-01-25T00:34:44;97506.88;;;0.32;86.40
44751;BME280;30477;48.224;11.470;2023-01-25T00:37:17;97517.09;;;0.30;86.43
44751;BME280;30477;48.224;11.470;2023-01-25T00:39:44;97508.66;;;0.28;86.43
44751;BME280;30477;48.224;11.470;2023-01-25T00:42:10;97512.03;;;0.29;86.49
44751;BME280;30477;48.224;11.470;2023-01-25T00:44:37;97501.81;;;0.30;86.73
44751;BME280;30477;48.224;11.470;2023-01-25T00:47:02;97497.66;;;0.26;86.42
44751;BME280;30477;48.224;11.470;2023-01-25T00:49:29;97501.16;;;0.22;86.44
44751;BME280;30477;48.224;11.470;2023-01-25T00:51:56;97497.69;;;0.25;86.56
44751;BME280;30477;48.224;11.470;2023-01-25T00:54:22;97498.50;;;0.27;86.54
44751;BME280;30477;48.224;11.470;2023-01-25T00:56:48;97506.13;;;0.27;86.24
44751;BME280;30477;48.224;11.470;2023-01-25T00:59:13;97495.03;;;0.29;86.44
44751;BME280;30477;48.224;11.470;2023-01-25T01:01:40;97499.41;;;0.24;86.38
44751;BME280;30477;48.224;11.470;2023-01-25T01:04:06;97498.53;;;0.25;86.39
44751;BME280;30477;48.224;11.470;2023-01-25T01:06:34;97497.66;;;0.26;86.36
44751;BME280;30477;48.224;11.470;2023-01-25T01:08:59;97499.25;;;0.30;86.44
44751;BME280;30477;48.224;11.470;2023-01-25T01:11:25;97494.22;;;0.27;86.34
44751;BME280;30477;48.224;11.470;2023-01-25T01:13:50;97500.91;;;0.31;86.62
44751;BME280;30477;48.224;11.470;2023-01-25T01:16:15;97495.91;;;0.28;86.26
44751;BME280;30477;48.224;11.470;2023-01-25T01:18:43;97494.31;;;0.24;86.45
44751;BME280;30477;48.224;11.470;2023-01-25T01:21:09;97495.28;;;0.20;86.51
44751;BME280;30477;48.224;11.470;2023-01-25T01:23:35;97497.00;;;0.19;86.56
44751;BME280;30477;48.224;11.470;2023-01-25T01:26:01;97491.81;;;0.23;86.53
44751;BME280;30477;48.224;11.470;2023-01-25T01:28:31;97476.50;;;0.24;86.51
44751;BME280;30477;48.224;11.470;2023-01-25T01:31:05;97475.53;;;0.28;86.60
44751;BME280;30477;48.224;11.470;2023-01-25T01:33:31;97478.28;;;0.20;86.51
44751;BME280;30477;48.224;11.470;2023-01-25T01:35:56;97480.91;;;0.19;86.65
44751;BME280;30477;48.224;11.470;2023-01-25T01:38:21;97479.19;;;0.19;86.60
44751;BME280;30477;48.224;11.470;2023-01-25T01:40:47;97475.81;;;0.19;86.42
44751;BME280;30477;48.224;11.470;2023-01-25T01:43:21;97477.47;;;0.20;86.60
44751;BME280;30477;48.224;11.470;2023-01-25T01:50:43;97479.38;;;0.12;86.52
44751;BME280;30477;48.224;11.470;2023-01-25T01:53:08;97480.25;;;0.11;86.64
44751;BME280;30477;48.224;11.470;2023-01-25T01:55:35;97479.50;;;0.07;86.45
44751;BME280;30477;48.224;11.470;2023-01-25T01:58:01;97478.63;;;0.08;86.64
44751;BME280;30477;48.224;11.470;2023-01-25T02:00:31;97479.38;;;0.12;86.65
44751;BME280;30477;48.224;11.470;2023-01-25T02:02:59;97479.31;;;0.15;86.62
44751;BME280;30477;48.224;11.470;2023-01-25T02:05:31;97481.91;;;0.12;86.51
44751;BME280;30477;48.224;11.470;2023-01-25T02:08:01;97483.59;;;0.13;86.53
44751;BME280;30477;48.224;11.470;2023-01-25T02:10:29;97479.38;;;0.12;86.67
44751;BME280;30477;48.224;11.470;2023-01-25T02:12:55;97477.72;;;0.11;86.68
44751;BME280;30477;48.224;11.470;2023-01-25T02:15:23;97471.75;;;0.12;86.81
44751;BME280;30477;48.224;11.470;2023-01-25T02:17:52;97471.75;;;0.12;86.82
44751;BME280;30477;48.224;11.470;2023-01-25T02:25:46;97470.00;;;0.14;86.69
44751;BME280;30477;48.224;11.470;2023-01-25T02:28:20;97470.03;;;0.12;86.81
44751;BME280;30477;48.224;11.470;2023-01-25T02:30:47;97478.41;;;0.16;86.71
44751;BME280;30477;48.224;11.470;2023-01-25T02:33:13;97469.19;;;0.12;86.65
44751;BME280;30477;48.224;11.470;2023-01-25T02:35:46;97474.38;;;0.09;86.81
44751;BME280;30477;48.224;11.470;2023-01-25T02:38:14;97477.78;;;0.08;86.88
44751;BME280;30477;48.224;11.470;2023-01-25T02:40:46;97479.47;;;0.09;86.86
44751;BME280;30477;48.224;11.470;2023-01-25T02:43:13;97470.19;;;0.06;86.55
44751;BME280;30477;48.224;11.470;2023-01-25T02:45:38;97466.84;;;0.04;86.69
44751;BME280;30477;48.224;11.470;2023-01-25T02:48:04;97474.41;;;0.07;86.73
44751;BME280;30477;48.224;11.470;2023-01-25T02:50:29;97468.56;;;0.04;86.54
44751;BME280;30477;48.224;11.470;2023-01-25T02:52:55;97461.84;;;0.01;86.59
44751;BME280;30477;48.224;11.470;2023-01-25T02:55:20;97460.19;;;0.00;86.70
44751;BME280;30477;48.224;11.470;2023-01-25T02:57:45;97466.75;;;0.09;86.68
44751;BME280;30477;48.224;11.470;2023-01-25T03:00:11;97462.44;;;0.11;86.72
44751;BME280;30477;48.224;11.470;2023-01-25T03:02:37;97474.38;;;0.09;86.60
44751;BME280;30477;48.224;11.470;2023-01-25T03:05:02;97466.75;;;0.09;86.57
44751;BME280;30477;48.224;11.470;2023-01-25T03:07:27;97459.19;;;0.04;86.48
44751;BME280;30477;48.224;11.470;2023-01-25T03:09:53;97460.78;;;0.08;86.60
44751;BME280;30477;48.224;11.470;2023-01-25T03:12:18;97458.22;;;0.10;86.47
44751;BME280;30477;48.224;11.470;2023-01-25T03:14:43;97452.34;;;0.08;86.53
44751;BME280;30477;48.224;11.470;2023-01-25T03:17:09;97450.72;;;0.05;86.43
44751;BME280;30477;48.224;11.470;2023-01-25T03:19:37;97444.81;;;0.03;86.49
44751;BME280;30477;48.224;11.470;2023-01-25T03:22:02;97441.53;;;-0.01;86.38
44751;BME280;30477;48.224;11.470;2023-01-25T03:24:30;97448.31;;;-0.01;86.49
44751;BME280;30477;48.224;11.470;2023-01-25T03:26:55;97444.19;;;-0.05;86.45
44751;BME280;30477;48.224;11.470;2023-01-25T03:29:36;97444.16;;;-0.04;86.58
44751;BME280;30477;48.224;11.470;2023-01-25T03:32:02;97440.72;;;-0.03;86.47
44751;BME280;30477;48.224;11.470;2023-01-25T03:34:28;97442.41;;;-0.02;86.42
44751;BME280;30477;48.224;11.470;2023-01-25T03:36:53;97433.94;;;-0.02;86.16
44751;BME280;30477;48.224;11.470;2023-01-25T03:39:19;97436.59;;;-0.07;86.37
44751;BME280;30477;48.224;11.470;2023-01-25T03:41:44;97442.56;;;-0.08;86.30
44751;BME280;30477;48.224;11.470;2023-01-25T03:44:10;97440.69;;;-0.01;86.21
44751;BME280;30477;48.224;11.470;2023-01-25T03:46:39;97438.16;;;-0.01;86.20
44751;BME280;30477;48.224;11.470;2023-01-25T03:49:04;97439.88;;;-0.02;85.96
44751;BME280;30477;48.224;11.470;2023-01-25T03:51:30;97428.78;;;-0.01;86.14
44751;BME280;30477;48.224;11.470;2023-01-25T03:53:55;97426.31;;;-0.02;86.11
44751;BME280;30477;48.224;11.470;2023-01-25T03:56:20;97428.78;;;-0.01;86.08
44751;BME280;30477;48.224;11.470;2023-01-25T03:58:46;97433.81;;;0.03;86.26
44751;BME280;30477;48.224;11.470;2023-01-25T04:01:11;97430.50;;;-0.01;86.31
44751;BME280;30477;48.224;11.470;2023-01-25T04:03:37;97428.72;;;0.03;86.36
44751;BME280;30477;48.224;11.470;2023-01-25T04:06:03;97433.81;;;0.03;86.04
44751;BME280;30477;48.224;11.470;2023-01-25T04:08:29;97434.81;;;-0.03;86.11
44751;BME280;30477;48.224;11.470;2023-01-25T04:10:58;97433.09;;;-0.03;86.38
44751;BME280;30477;48.224;11.470;2023-01-25T04:13:24;97432.22;;;-0.02;86.30
44751;BME280;30477;48.224;11.470;2023-01-25T04:15:50;97428.88;;;-0.04;86.42
44751;BME280;30477;48.224;11.470;2023-01-25T04:18:16;97427.19;;;-0.05;86.27
44751;BME280;30477;48.224;11.470;2023-01-25T04:20:42;97428.91;;;-0.05;86.35
44751;BME280;30477;48.224;11.470;2023-01-25T04:23:08;97430.69;;;-0.09;86.21
44751;BME280;30477;48.224;11.470;2023-01-25T04:25:34;97420.47;;;-0.06;86.40
44751;BME280;30477;48.224;11.470;2023-01-25T04:27:59;97419.53;;;-0.03;86.29
44751;BME280;30477;48.224;11.470;2023-01-25T04:30:25;97422.13;;;-0.05;86.33
44751;BME280;30477;48.224;11.470;2023-01-25T04:32:50;97420.44;;;-0.04;86.29
44751;BME280;30477;48.224;11.470;2023-01-25T04:35:15;97416.22;;;-0.07;86.37
44751;BME280;30477;48.224;11.470;2023-01-25T04:37:41;97410.34;;;-0.09;86.40
44751;BME280;30477;48.224;11.470;2023-01-25T04:40:07;97413.69;;;-0.07;86.36
44751;BME280;30477;48.224;11.470;2023-01-25T04:42:33;97412.84;;;-0.07;86.41
44751;BME280;30477;48.224;11.470;2023-01-25T04:44:59;97403.59;;;-0.10;86.61
44751;BME280;30477;48.224;11.470;2023-01-25T04:47:24;97401.03;;;-0.08;86.56
44751;BME280;30477;48.224;11.470;2023-01-25T04:49:49;97395.94;;;-0.08;86.67
44751;BME280;30477;48.224;11.470;2023-01-25T04:52:15;97391.66;;;-0.08;86.67
44751;BME280;30477;48.224;11.470;2023-01-25T04:54:40;97387.28;;;-0.03;86.72
44751;BME280;30477;48.224;11.470;2023-01-25T04:57:05;97395.88;;;-0.07;86.78
44751;BME280;30477;48.224;11.470;2023-01-25T04:59:31;97397.63;;;-0.09;86.99
44751;BME280;30477;48.224;11.470;2023-01-25T05:01:56;97391.75;;;-0.11;86.85
44751;BME280;30477;48.224;11.470;2023-01-25T05:04:21;97389.19;;;-0.11;86.80
44751;BME280;30477;48.224;11.470;2023-01-25T05:06:46;97395.19;;;-0.12;86.86
44751;BME280;30477;48.224;11.470;2023-01-25T05:09:12;97394.38;;;-0.14;86.89
44751;BME280;30477;48.224;11.470;2023-01-25T05:11:37;97385.13;;;-0.16;86.67
44751;BME280;30477;48.224;11.470;2023-01-25T05:14:03;97391.03;;;-0.16;86.96
44751;BME280;30477;48.224;11.470;2023-01-25T05:16:28;97381.81;;;-0.20;86.91
44751;BME280;30477;48.224;11.470;2023-01-25T05:18:54;97380.06;;;-0.18;87.15
44751;BME280;30477;48.224;11.470;2023-01-25T05:21:19;97373.22;;;-0.16;87.22
44751;BME280;30477;48.224;11.470;2023-01-25T05:24:04;97376.56;;;-0.14;87.19
44751;BME280;30477;48.224;11.470;2023-01-25T05:26:29;97375.69;;;-0.13;86.96
44751;BME280;30477;48.224;11.470;2023-01-25T05:29:13;97369.72;;;-0.12;87.17
44751;BME280;30477;48.224;11.470;2023-01-25T05:31:38;97367.16;;;-0.10;87.08
44751;BME280;30477;48.224;11.470;2023-01-25T05:34:04;97371.38;;;-0.11;87.09
44751;BME280;30477;48.224;11.470;2023-01-25T05:36:29;97369.78;;;-0.15;87.26
44751;BME280;30477;48.224;11.470;2023-01-25T05:38:54;97374.97;;;-0.18;87.18
44751;BME280;30477;48.224;11.470;2023-01-25T05:41:20;97387.72;;;-0.19;87.31
44751;BME280;30477;48.224;11.470;2023-01-25T05:43:48;97389.41;;;-0.18;87.12
44751;BME280;30477;48.224;11.470;2023-01-25T05:46:14;97384.38;;;-0.20;87.37
44751;BME280;30477;48.224;11.470;2023-01-25T05:48:39;97382.69;;;-0.21;87.25
44751;BME280;30477;48.224;11.470;2023-01-25T05:51:04;97380.13;;;-0.21;87.37
44751;BME280;30477;48.224;11.470;2023-01-25T05:53:30;97386.91;;;-0.20;87.45
44751;BME280;30477;48.224;11.470;2023-01-25T05:56:03;97378.19;;;-0.11;87.64
44751;BME280;30477;48.224;11.470;2023-01-25T05:58:28;97379.97;;;-0.15;87.16
44751;BME280;30477;48.224;11.470;2023-01-25T06:00:54;97372.44;;;-0.18;87.44
44751;BME280;30477;48.224;11.470;2023-01-25T06:03:19;97376.72;;;-0.20;87.21
44751;BME280;30477;48.224;11.470;2023-01-25T06:05:44;97368.41;;;-0.25;87.39
44751;BME280;30477;48.224;11.470;2023-01-25T06:08:09;97368.97;;;-0.15;87.45
44751;BME280;30477;48.224;11.470;2023-01-25T06:10:35;97367.34;;;-0.18;87.41
44751;BME280;30477;48.224;11.470;2023-01-25T06:13:00;97363.13;;;-0.19;87.42
44751;BME280;30477;48.224;11.470;2023-01-25T06:15:26;97361.38;;;-0.17;87.54
44751;BME280;30477;48.224;11.470;2023-01-25T06:17:55;97369.72;;;-0.12;87.61
44751;BME280;30477;48.224;11.470;2023-01-25T06:20:20;97365.44;;;-0.10;87.74
44751;BME280;30477;48.224;11.470;2023-01-25T06:22:49;97365.28;;;-0.05;87.68
44751;BME280;30477;48.224;11.470;2023-01-25T06:25:15;97360.16;;;-0.04;87.66
44751;BME280;30477;48.224;11.470;2023-01-25T06:27:41;97356.88;;;-0.07;87.47
44751;BME280;30477;48.224;11.470;2023-01-25T06:30:07;97353.69;;;-0.15;87.38
44751;BME280;30477;48.224;11.470;2023-01-25T06:32:32;97350.34;;;-0.16;87.35
44751;BME280;30477;48.224;11.470;2023-01-25T06:34:58;97356.13;;;-0.11;87.28
44751;BME280;30477;48.224;11.470;2023-01-25T06:37:23;97351.81;;;-0.09;87.28
44751;BME280;30477;48.224;11.470;2023-01-25T06:39:48;97340.84;;;-0.11;87.20
44751;BME280;30477;48.224;11.470;2023-01-25T06:42:14;97341.59;;;-0.07;87.12
44751;BME280;30477;48.224;11.470;2023-01-25T06:44:39;97344.28;;;-0.12;86.93
44751;BME280;30477;48.224;11.470;2023-01-25T06:47:07;97339.19;;;-0.12;86.93
44751;BME280;30477;48.224;11.470;2023-01-25T06:49:33;97345.06;;;-0.10;86.74
44751;BME280;30477;48.224;11.470;2023-01-25T06:51:58;97351.03;;;-0.11;86.94
44751;BME280;30477;48.224;11.470;2023-01-25T06:54:25;97338.47;;;-0.17;86.95
44751;BME280;30477;48.224;11.470;2023-01-25T06:56:50;97334.31;;;-0.19;86.66
44751;BME280;30477;48.224;11.470;2023-01-25T06:59:15;97333.47;;;-0.20;86.70
44751;BME280;30477;48.224;11.470;2023-01-25T07:01:41;97331.91;;;-0.24;86.67
44751;BME280;30477;48.224;11.470;2023-01-25T07:04:07;97322.50;;;-0.22;86.51
44751;BME280;30477;48.224;11.470;2023-01-25T07:06:34;97324.91;;;-0.17;86.52
44751;BME280;30477;48.224;11.470;2023-01-25T07:09:08;97323.91;;;-0.12;86.63
44751;BME280;30477;48.224;11.470;2023-01-25T07:11:34;97335.75;;;-0.11;86.28
44751;BME280;30477;48.224;11.470;2023-01-25T07:14:00;97323.13;;;-0.14;86.21
44751;BME280;30477;48.224;11.470;2023-01-25T07:16:27;97324.16;;;-0.21;86.10
44751;BME280;30477;48.224;11.470;2023-01-25T07:18:53;97327.59;;;-0.22;86.27
44751;BME280;30477;48.224;11.470;2023-01-25T07:21:27;97317.38;;;-0.21;86.35
44751;BME280;30477;48.224;11.470;2023-01-25T07:23:59;97325.72;;;-0.15;86.26
44751;BME280;30477;48.224;11.470;2023-01-25T07:26:24;97322.34;;;-0.16;86.10
44751;BME280;30477;48.224;11.470;2023-01-25T07:28:51;97320.44;;;-0.09;85.96
44751;BME280;30477;48.224;11.470;2023-01-25T07:31:18;97323.03;;;-0.11;85.93
44751;BME280;30477;48.224;11.470;2023-01-25T07:33:50;97312.78;;;-0.08;86.22
44751;BME280;30477;48.224;11.470;2023-01-25T07:36:17;97309.34;;;-0.07;86.06
44751;BME280;30477;48.224;11.470;2023-01-25T07:38:44;97305.97;;;-0.07;86.06
44751;BME280;30477;48.224;11.470;2023-01-25T07:41:10;97310.22;;;-0.08;86.14
44751;BME280;30477;48.224;11.470;2023-01-25T07:43:36;97318.88;;;-0.13;85.97
44751;BME280;30477;48.224;11.470;2023-01-25T07:46:04;97323.19;;;-0.17;85.96
44751;BME280;30477;48.224;11.470;2023-01-25T07:48:30;97324.00;;;-0.15;85.99
44751;BME280;30477;48.224;11.470;2023-01-25T07:51:00;97318.91;;;-0.15;85.92
44751;BME280;30477;48.224;11.470;2023-01-25T07:54:01;97324.16;;;-0.21;86.00
44751;BME280;30477;48.224;11.470;2023-01-25T07:56:30;97322.50;;;-0.22;85.99
44751;BME280;30477;48.224;11.470;2023-01-25T07:58:56;97325.94;;;-0.23;85.83
44751;BME280;30477;48.224;11.470;2023-01-25T08:01:24;97332.78;;;-0.25;85.96
44751;BME280;30477;48.224;11.470;2023-01-25T08:03:50;97332.78;;;-0.25;85.81
44751;BME280;30477;48.224;11.470;2023-01-25T08:06:16;97328.41;;;-0.22;86.04
44751;BME280;30477;48.224;11.470;2023-01-25T08:08:47;97322.59;;;-0.25;86.04
44751;BME280;30477;48.224;11.470;2023-01-25T08:11:16;97321.88;;;-0.30;86.09
44751;BME280;30477;48.224;11.470;2023-01-25T08:13:42;97324.38;;;-0.27;86.13
44751;BME280;30477;48.224;11.470;2023-01-25T08:16:12;97326.91;;;-0.27;85.75
44751;BME280;30477;48.224;11.470;2023-01-25T08:18:37;97331.19;;;-0.29;86.30
44751;BME280;30477;48.224;11.470;2023-01-25T08:21:03;97327.75;;;-0.28;86.21
44751;BME280;30477;48.224;11.470;2023-01-25T08:23:28;97325.31;;;-0.31;86.25
44751;BME280;30477;48.224;11.470;2023-01-25T08:25:54;97321.03;;;-0.29;86.16
44751;BME280;30477;48.224;11.470;2023-01-25T08:28:20;97317.69;;;-0.31;86.34
44751;BME280;30477;48.224;11.470;2023-01-25T08:30:46;97317.59;;;-0.28;86.34
44751;BME280;30477;48.224;11.470;2023-01-25T08:33:12;97316.66;;;-0.26;86.26
44751;BME280;30477;48.224;11.470;2023-01-25T08:35:38;97316.72;;;-0.27;86.43
44751;BME280;30477;48.224;11.470;2023-01-25T08:38:03;97313.28;;;-0.26;86.44
44751;BME280;30477;48.224;11.470;2023-01-25T08:40:29;97315.66;;;-0.20;86.47
44751;BME280;30477;48.224;11.470;2023-01-25T08:42:55;97312.34;;;-0.22;86.33
44751;BME280;30477;48.224;11.470;2023-01-25T08:45:20;97311.56;;;-0.26;86.31
44751;BME280;30477;48.224;11.470;2023-01-25T08:47:46;97311.84;;;-0.35;86.33
44751;BME280;30477;48.224;11.470;2023-01-25T08:50:11;97317.09;;;-0.41;86.28
44751;BME280;30477;48.224;11.470;2023-01-25T08:52:37;97311.09;;;-0.38;86.43
44751;BME280;30477;48.224;11.470;2023-01-25T08:55:02;97312.03;;;-0.43;86.37
44751;BME280;30477;48.224;11.470;2023-01-25T08:57:29;97312.97;;;-0.45;86.38
44751;BME280;30477;48.224;11.470;2023-01-25T08:59:54;97303.63;;;-0.45;86.28
44751;BME280;30477;48.224;11.470;2023-01-25T09:02:20;97312.94;;;-0.44;86.41
44751;BME280;30477;48.224;11.470;2023-01-25T09:04:45;97302.59;;;-0.37;86.37
44751;BME280;30477;48.224;11.470;2023-01-25T09:07:11;97302.44;;;-0.31;86.40
44751;BME280;30477;48.224;11.470;2023-01-25T09:09:36;97299.09;;;-0.33;86.20
44751;BME280;30477;48.224;11.470;2023-01-25T09:12:02;97292.31;;;-0.34;86.28
44751;BME280;30477;48.224;11.470;2023-01-25T09:14:27;97287.22;;;-0.34;86.33
44751;BME280;30477;48.224;11.470;2023-01-25T09:16:53;97294.06;;;-0.36;86.30
44751;BME280;30477;48.224;11.470;2023-01-25T09:19:18;97298.47;;;-0.42;86.21
44751;BME280;30477;48.224;11.470;2023-01-25T09:21:43;97293.41;;;-0.43;86.18
44751;BME280;30477;48.224;11.470;2023-01-25T09:24:09;97299.25;;;-0.39;86.26
44751;BME280;30477;48.224;11.470;2023-01-25T09:26:37;97294.25;;;-0.43;86.17
44751;BME280;30477;48.224;11.470;2023-01-25T09:29:03;97290.06;;;-0.45;86.05
44751;BME280;30477;48.224;11.470;2023-01-25T09:31:28;97288.31;;;-0.43;86.06
44751;BME280;30477;48.224;11.470;2023-01-25T09:33:54;97285.81;;;-0.45;86.00
44751;BME280;30477;48.224;11.470;2023-01-25T09:36:20;97296.00;;;-0.45;86.05
44751;BME280;30477;48.224;11.470;2023-01-25T09:38:46;97282.31;;;-0.41;86.14
44751;BME280;30477;48.224;11.470;2023-01-25T09:46:56;97289.16;;;-0.43;85.98
44751;BME280;30477;48.224;11.470;2023-01-25T09:49:44;97284.72;;;-0.36;86.04
44751;BME280;30477;48.224;11.470;2023-01-25T09:52:29;97285.66;;;-0.38;85.95
44751;BME280;30477;48.224;11.470;2023-01-25T09:55:00;97279.91;;;-0.45;85.90
44751;BME280;30477;48.224;11.470;2023-01-25T09:57:30;97284.84;;;-0.41;85.95
44751;BME280;30477;48.224;11.470;2023-01-25T10:00:00;97289.25;;;-0.46;85.70
44751;BME280;30477;48.224;11.470;2023-01-25T10:05:41;97273.66;;;-0.33;86.03
44751;BME280;30477;48.224;11.470;2023-01-25T10:08:26;97279.56;;;-0.33;85.84
44751;BME280;30477;48.224;11.470;2023-01-25T10:11:07;97279.72;;;-0.39;85.93
44751;BME280;30477;48.224;11.470;2023-01-25T10:13:36;97274.66;;;-0.39;85.76
44751;BME280;30477;48.224;11.470;2023-01-25T10:16:05;97271.28;;;-0.39;85.82
44751;BME280;30477;48.224;11.470;2023-01-25T10:18:55;97271.31;;;-0.41;85.83
44751;BME280;30477;48.224;11.470;2023-01-25T10:21:30;97271.34;;;-0.43;85.97
44751;BME280;30477;48.224;11.470;2023-01-25T10:26:44;97268.91;;;-0.46;85.86
44751;BME280;30477;48.224;11.470;2023-01-25T10:29:26;97257.22;;;-0.53;85.88
44751;BME280;30477;48.224;11.470;2023-01-25T10:31:53;97257.94;;;-0.48;86.22
44751;BME280;30477;48.224;11.470;2023-01-25T10:34:35;97238.47;;;-0.49;85.90
44751;BME280;30477;48.224;11.470;2023-01-25T10:37:14;97241.06;;;-0.50;85.94
44751;BME280;30477;48.224;11.470;2023-01-25T10:39:53;97230.75;;;-0.46;86.05
44751;BME280;30477;48.224;11.470;2023-01-25T10:42:23;97234.78;;;-0.38;86.04
44751;BME280;30477;48.224;11.470;2023-01-25T10:44:50;97231.53;;;-0.44;86.03
44751;BME280;30477;48.224;11.470;2023-01-25T10:49:48;97233.31;;;-0.46;85.91
44751;BME280;30477;48.224;11.470;2023-01-25T10:52:22;97227.25;;;-0.42;86.01
44751;BME280;30477;48.224;11.470;2023-01-25T11:00:26;97226.59;;;-0.48;86.21
44751;BME280;30477;48.224;11.470;2023-01-25T11:02:53;97222.38;;;-0.49;86.24
44751;BME280;30477;48.224;11.470;2023-01-25T11:07:55;97200.47;;;-0.55;86.35
44751;BME280;30477;48.224;11.470;2023-01-25T11:10:27;97194.53;;;-0.54;86.62
44751;BME280;30477;48.224;11.470;2023-01-25T11:18:17;97190.28;;;-0.53;86.88
44751;BME280;30477;48.224;11.470;2023-01-25T11:20:43;97188.56;;;-0.53;86.83
44751;BME280;30477;48.224;11.470;2023-01-25T11:23:25;97181.81;;;-0.54;87.00
44751;BME280;30477;48.224;11.470;2023-01-25T11:25:51;97181.69;;;-0.49;86.97
44751;BME280;30477;48.224;11.470;2023-01-25T11:28:22;97175.78;;;-0.50;86.84
44751;BME280;30477;48.224;11.470;2023-01-25T11:30:49;97174.06;;;-0.49;86.85
44751;BME280;30477;48.224;11.470;2023-01-25T11:33:17;97174.09;;;-0.51;86.93
44751;BME280;30477;48.224;11.470;2023-01-25T11:38:22;97163.09;;;-0.51;87.01
44751;BME280;30477;48.224;11.470;2023-01-25T11:49:34;97136.91;;;-0.55;87.07
44751;BME280;30477;48.224;11.470;2023-01-25T12:13:34;97087.03;;;-0.59;87.14
44751;BME280;30477;48.224;11.470;2023-01-25T12:19:11;97075.16;;;-0.58;87.21
44751;BME280;30477;48.224;11.470;2023-01-25T12:30:01;97066.63;;;-0.56;87.34
44751;BME280;30477;48.224;11.470;2023-01-25T12:32:47;97063.34;;;-0.61;87.16
44751;BME280;30477;48.224;11.470;2023-01-25T12:37:47;97056.50;;;-0.59;87.30
44751;BME280;30477;48.224;11.470;2023-01-25T12:40:29;97049.00;;;-0.62;87.31
44751;BME280;30477;48.224;11.470;2023-01-25T12:42:57;97052.31;;;-0.60;87.31
44751;BME280;30477;48.224;11.470;2023-01-25T12:45:29;97045.56;;;-0.61;87.17
44751;BME280;30477;48.224;11.470;2023-01-25T12:48:02;97042.84;;;-0.55;87.33
44751;BME280;30477;48.224;11.470;2023-01-25T12:50:34;97043.03;;;-0.61;87.23
44751;BME280;30477;48.224;11.470;2023-01-25T12:53:16;97043.91;;;-0.62;87.17
44751;BME280;30477;48.224;11.470;2023-01-25T12:55:42;97037.25;;;-0.66;87.27
44751;BME280;30477;48.224;11.470;2023-01-25T13:00:43;97032.00;;;-0.60;87.24
44751;BME280;30477;48.224;11.470;2023-01-25T13:03:25;97031.28;;;-0.65;87.10
44751;BME280;30477;48.224;11.470;2023-01-25T13:06:00;97024.66;;;-0.69;87.19
44751;BME280;30477;48.224;11.470;2023-01-25T13:11:18;97023.56;;;-0.62;87.21
44751;BME280;30477;48.224;11.470;2023-01-25T13:13:45;97018.50;;;-0.62;87.20
44751;BME280;30477;48.224;11.470;2023-01-25T13:18:54;97008.94;;;-0.55;87.01
44751;BME280;30477;48.224;11.470;2023-01-25T13:21:39;97013.22;;;-0.56;87.04
44751;BME280;30477;48.224;11.470;2023-01-25T13:24:13;97019.22;;;-0.58;87.17
44751;BME280;30477;48.224;11.470;2023-01-25T13:26:48;97009.88;;;-0.58;87.02
44751;BME280;30477;48.224;11.470;2023-01-25T13:32:51;97005.03;;;-0.66;86.93
44751;BME280;30477;48.224;11.470;2023-01-25T13:35:00;97011.84;;;-0.66;86.82
44751;BME280;30477;48.224;11.470;2023-01-25T13:37:29;96999.91;;;-0.64;86.89
44751;BME280;30477;48.224;11.470;2023-01-25T13:39:56;97001.66;;;-0.66;86.82
44751;BME280;30477;48.224;11.470;2023-01-25T13:42:31;96998.22;;;-0.65;86.96
44751;BME280;30477;48.224;11.470;2023-01-25T13:47:33;96994.03;;;-0.66;86.65
44751;BME280;30477;48.224;11.470;2023-01-25T13:53:16;96995.66;;;-0.64;86.94
44751;BME280;30477;48.224;11.470;2023-01-25T13:55:50;96996.59;;;-0.66;86.79
44751;BME280;30477;48.224;11.470;2023-01-25T14:00:50;96993.03;;;-0.60;86.78
44751;BME280;30477;48.224;11.470;2023-01-25T14:03:18;96978.47;;;-0.57;86.79
44751;BME280;30477;48.224;11.470;2023-01-25T14:05:50;96974.19;;;-0.55;87.13
44751;BME280;30477;48.224;11.470;2023-01-25T14:08:18;96980.19;;;-0.57;86.67
44751;BME280;30477;48.224;11.470;2023-01-25T14:10:44;96976.06;;;-0.60;86.84
44751;BME280;30477;48.224;11.470;2023-01-25T14:13:13;96976.06;;;-0.60;86.85
44751;BME280;30477;48.224;11.470;2023-01-25T14:15:38;96970.00;;;-0.56;86.97
44751;BME280;30477;48.224;11.470;2023-01-25T14:20:36;96971.78;;;-0.59;86.84
44751;BME280;30477;48.224;11.470;2023-01-25T14:23:02;96967.53;;;-0.59;86.76
44751;BME280;30477;48.224;11.470;2023-01-25T14:25:28;96970.97;;;-0.60;86.90
44751;BME280;30477;48.224;11.470;2023-01-25T14:27:59;96970.97;;;-0.60;86.95
44751;BME280;30477;48.224;11.470;2023-01-25T14:30:27;96964.94;;;-0.57;86.89
44751;BME280;30477;48.224;11.470;2023-01-25T14:32:55;96957.47;;;-0.62;86.89
44751;BME280;30477;48.224;11.470;2023-01-25T14:35:39;96962.25;;;-0.53;87.12
44751;BME280;30477;48.224;11.470;2023-01-25T14:38:21;96958.09;;;-0.55;86.85
44751;BME280;30477;48.224;11.470;2023-01-25T14:40:48;96948.88;;;-0.58;86.94
44751;BME280;30477;48.224;11.470;2023-01-25T14:43:15;96954.88;;;-0.60;86.78
44751;BME280;30477;48.224;11.470;2023-01-25T14:45:41;96954.97;;;-0.64;86.86